首页
METAR-TAF:

METAR-TAF

机场 :

阿道弗·苏亚雷斯马德里-巴拉哈斯机场

马德里, 西班牙

纬度: 40-27N, 经度: 003-33W, 海拔: 609米

当前天气观测

该预报发布于38分钟前的11:00 UTC
风速1节,风向多变
温度 25°C
湿度 50%
气压 1018 hPa
能见度10公里或以上
1500米以下无云,无积雨云

METAR: LEMD 191100Z VRB01KT CAVOK 25/14 Q1018 NOSIG

时间: 13:38 (11:38 UTC)

预报

该预报发布于6小时和38分钟前的05:00 UTC
预报有效从19日的 06点(UTC)到 20日的 12点(UTC)
风速5节,风向多变
能见度10公里或以上
1500米以下无云,无积雨云
短暂存在
从 19日的 06点(UTC)到 19日的 08点(UTC)
风速5节,风向
几率 30% :
短暂存在
从 19日的 14点(UTC)到 19日的 20点(UTC)
少量云层高于4500英尺, 塔状积云.
短暂存在
从 19日的 20点(UTC)到 19日的 24点(UTC)
风速5节,风向南转南东
短暂存在
从 20日的 08点(UTC)到 20日的 12点(UTC)
风速10节,风向东南

TAF: LEMD 190500Z 1906/2012 VRB05KT CAVOK TX28/1915Z TN16/2006Z TEMPO 1906/1908 35005KT PROB30 TEMPO 1914/1920 FEW045TCU TEMPO 1920/1924 15005KT TEMPO 2008/2012 13010KT

超过4000个机场的气象观测和天气预报(METAR&TAF报告)。

可查询的气象台以黄色和红色小点在地图上表示。

将鼠标移到小点上方,可查看气象台名称。

然后点击查看天气观测和预报。

如需切换地图:点击带黑十字的绿色按钮放大地图;点击带横线的绿色按钮缩小地图;或者点击绿色箭头查看邻近地区的地图。


METAR-TAF: